createdAt,value
2018-11-05T00:01:25.360Z,53.50
2018-11-05T00:03:55.307Z,50.83
2018-11-05T00:06:24.352Z,53.50
2018-11-05T00:08:53.172Z,55.63
2018-11-05T00:11:22.196Z,52.73
2018-11-05T00:13:51.388Z,55.03
2018-11-05T00:16:20.264Z,54.33
2018-11-05T00:18:49.341Z,52.63
2018-11-05T00:21:18.203Z,54.17
2018-11-05T00:23:46.963Z,56.87
2018-11-05T00:26:15.977Z,52.30
2018-11-05T00:28:44.943Z,54.50
2018-11-05T00:31:13.991Z,59.27
2018-11-05T00:33:43.179Z,55.03
2018-11-05T00:36:12.886Z,53.10
2018-11-05T00:38:42.793Z,51.93
2018-11-05T00:41:12.929Z,53.20
2018-11-05T00:43:42.504Z,54.67
2018-11-05T00:46:12.074Z,52.13
2018-11-05T00:48:41.948Z,51.60
2018-11-05T00:51:11.075Z,49.87
2018-11-05T00:53:40.029Z,51.40
2018-11-05T00:56:09.849Z,51.90
2018-11-05T00:58:42.524Z,53.70
2018-11-05T01:01:11.438Z,50.70
2018-11-05T01:03:40.268Z,52.03
2018-11-05T01:06:10.280Z,51.83
2018-11-05T01:08:38.976Z,53.37
2018-11-05T01:11:08.024Z,49.80
2018-11-05T01:13:36.811Z,49.50
2018-11-05T01:16:06.471Z,49.63
2018-11-05T01:18:35.910Z,47.93
2018-11-05T01:21:05.342Z,48.23
2018-11-05T01:23:34.270Z,48.47
2018-11-05T01:26:03.261Z,51.37
2018-11-05T01:28:32.513Z,48.20
2018-11-05T01:31:02.337Z,51.67
2018-11-05T01:33:31.314Z,53.40
2018-11-05T01:36:00.130Z,51.67
2018-11-05T01:38:29.045Z,50.27
2018-11-05T01:40:58.158Z,53.10
2018-11-05T01:43:27.187Z,54.10
2018-11-05T01:45:57.520Z,51.53
2018-11-05T01:48:26.213Z,52.43
2018-11-05T01:50:54.897Z,52.00
2018-11-05T01:53:24.856Z,52.20
2018-11-05T01:55:53.802Z,53.77
2018-11-05T01:58:22.817Z,48.87
2018-11-05T02:00:51.671Z,50.93
2018-11-05T02:03:20.569Z,47.43
2018-11-05T02:05:50.052Z,50.97
2018-11-05T02:08:18.755Z,54.13
2018-11-05T02:10:47.601Z,52.40
2018-11-05T02:13:16.597Z,55.37
2018-11-05T02:15:45.401Z,58.00
2018-11-05T02:18:14.529Z,56.67
2018-11-05T02:20:44.234Z,55.33
2018-11-05T02:23:13.148Z,62.50
2018-11-05T02:25:42.010Z,59.00
2018-11-05T02:28:10.670Z,56.50
2018-11-05T02:30:39.403Z,62.70
2018-11-05T02:33:08.068Z,62.50
2018-11-05T02:35:37.901Z,59.10
2018-11-05T02:38:06.591Z,60.83
2018-11-05T02:40:36.225Z,61.83
2018-11-05T02:43:05.087Z,59.97
2018-11-05T02:45:33.975Z,55.07
2018-11-05T02:48:02.869Z,60.20
2018-11-05T02:50:31.576Z,59.97
2018-11-05T02:53:00.328Z,60.57
2018-11-05T02:55:29.105Z,53.57
2018-11-05T02:57:57.848Z,52.53
2018-11-05T03:00:26.630Z,56.27
2018-11-05T03:02:55.595Z,57.03
2018-11-05T03:05:26.300Z,53.30
2018-11-05T03:07:55.724Z,51.57
2018-11-05T03:10:24.632Z,47.10
2018-11-05T03:12:53.429Z,45.77
2018-11-05T03:15:22.897Z,44.87
2018-11-05T03:17:52.582Z,46.20
2018-11-05T03:20:21.430Z,43.63
2018-11-05T03:22:50.963Z,45.50
2018-11-05T03:25:19.762Z,43.20
2018-11-05T03:27:48.589Z,48.00
2018-11-05T03:30:18.458Z,47.57
2018-11-05T03:32:47.461Z,49.53
2018-11-05T03:35:16.370Z,47.83
2018-11-05T03:37:46.042Z,44.07
2018-11-05T03:40:15.933Z,48.50
2018-11-05T03:42:45.525Z,46.43
2018-11-05T03:45:15.499Z,46.00
2018-11-05T03:47:44.640Z,46.30
2018-11-05T03:50:17.750Z,41.60
2018-11-05T03:52:47.928Z,46.40
2018-11-05T03:55:17.402Z,46.80
2018-11-05T03:57:47.568Z,46.63
2018-11-05T04:00:17.558Z,44.33
2018-11-05T04:02:46.460Z,48.57
2018-11-05T04:05:15.263Z,49.30
2018-11-05T04:07:43.965Z,47.17
2018-11-05T04:11:15.906Z,49.90
2018-11-05T04:13:44.710Z,47.83
2018-11-05T04:16:13.989Z,49.27
2018-11-05T04:18:42.780Z,49.20
2018-11-05T04:21:11.580Z,47.40
2018-11-05T04:23:40.469Z,49.87
2018-11-05T04:26:09.271Z,50.03
2018-11-05T04:28:37.964Z,49.27
2018-11-05T04:31:06.758Z,48.70
2018-11-05T04:33:36.131Z,50.50
2018-11-05T04:36:06.269Z,45.60
2018-11-05T04:38:35.156Z,46.90
2018-11-05T04:41:04.011Z,49.67
2018-11-05T04:43:32.770Z,48.80
2018-11-05T04:46:01.527Z,47.20
2018-11-05T04:48:30.414Z,45.60
2018-11-05T04:50:59.232Z,44.93
2018-11-05T04:53:27.991Z,43.93
2018-11-05T04:55:56.893Z,46.50
2018-11-05T04:58:25.569Z,46.87
2018-11-05T05:00:54.291Z,43.87
2018-11-05T05:03:23.132Z,45.63
2018-11-05T05:05:51.974Z,41.47
2018-11-05T05:08:20.751Z,43.37
2018-11-05T05:10:49.550Z,40.50
2018-11-05T05:13:18.397Z,44.13
2018-11-05T05:15:47.188Z,44.47
2018-11-05T05:18:17.387Z,43.83
2018-11-05T05:20:46.103Z,45.60
2018-11-05T05:23:15.470Z,40.87
2018-11-05T05:25:44.142Z,41.83
2018-11-05T05:28:12.851Z,44.27
2018-11-05T05:30:41.664Z,41.37
2018-11-05T05:33:10.594Z,41.87
2018-11-05T05:35:40.332Z,40.73
2018-11-05T05:38:09.782Z,43.50
2018-11-05T05:40:38.568Z,47.87
2018-11-05T05:43:07.542Z,47.80
2018-11-05T05:45:36.382Z,44.63
2018-11-05T05:48:06.945Z,46.40
2018-11-05T05:50:37.113Z,44.33
2018-11-05T05:53:11.494Z,43.90
2018-11-05T05:55:40.352Z,45.50
2018-11-05T05:58:10.091Z,43.83
2018-11-05T06:00:39.314Z,44.87
2018-11-05T06:03:08.158Z,43.30
2018-11-05T06:05:37.548Z,45.57
2018-11-05T06:08:06.773Z,47.73
2018-11-05T06:10:35.529Z,45.43
2018-11-05T06:13:04.459Z,45.63
2018-11-05T06:15:33.982Z,47.63
2018-11-05T06:18:02.898Z,47.83
2018-11-05T06:20:31.951Z,47.33
2018-11-05T06:23:00.940Z,47.67
2018-11-05T06:25:29.866Z,46.77
2018-11-05T06:27:58.687Z,45.47
2018-11-05T06:30:28.712Z,48.07
2018-11-05T06:32:57.564Z,47.27
2018-11-05T06:35:27.222Z,48.97
2018-11-05T06:37:56.015Z,49.40
2018-11-05T06:40:24.876Z,44.93
2018-11-05T06:42:54.034Z,45.10
2018-11-05T06:45:24.342Z,48.30
2018-11-05T06:47:54.064Z,45.80
2018-11-05T06:50:24.064Z,46.43
2018-11-05T06:52:53.164Z,46.60
2018-11-05T06:55:28.751Z,44.57
2018-11-05T06:57:57.749Z,50.23
2018-11-05T07:00:26.675Z,49.60
2018-11-05T07:02:55.509Z,48.43
2018-11-05T07:05:24.226Z,47.67
2018-11-05T07:07:53.162Z,47.03
2018-11-05T07:10:22.335Z,45.30
2018-11-05T07:12:51.108Z,48.20
2018-11-05T07:15:20.340Z,49.27
2018-11-05T07:17:49.829Z,51.07
2018-11-05T07:20:20.579Z,51.83
2018-11-05T07:22:50.252Z,53.50
2018-11-05T07:25:20.070Z,57.10
2018-11-05T07:27:48.887Z,57.83
2018-11-05T07:30:20.963Z,53.27
2018-11-05T07:32:51.070Z,54.47
2018-11-05T07:35:20.216Z,56.07
2018-11-05T07:37:52.875Z,59.77
2018-11-05T07:40:22.460Z,55.10
2018-11-05T07:42:58.319Z,56.90
2018-11-05T07:45:27.185Z,58.53
2018-11-05T07:47:56.254Z,62.77
2018-11-05T07:50:25.751Z,64.80
2018-11-05T07:52:54.841Z,58.20
2018-11-05T07:55:54.344Z,61.93
2018-11-05T07:58:23.292Z,59.90
2018-11-05T08:00:57.129Z,61.30
2018-11-05T08:03:26.669Z,59.53
2018-11-05T08:05:56.302Z,62.37
2018-11-05T08:08:25.267Z,62.73
2018-11-05T08:10:54.267Z,62.70
2018-11-05T08:13:23.171Z,56.23
2018-11-05T08:15:52.163Z,60.17
2018-11-05T08:18:22.167Z,64.13
2018-11-05T08:20:51.013Z,58.97
2018-11-05T08:23:20.306Z,60.30
2018-11-05T08:25:49.183Z,59.40
2018-11-05T08:28:18.933Z,59.77
2018-11-05T08:30:47.978Z,56.27
2018-11-05T08:33:16.963Z,58.40
2018-11-05T08:35:47.086Z,61.47
2018-11-05T08:38:16.230Z,60.30
2018-11-05T08:41:15.985Z,58.90
2018-11-05T08:43:44.922Z,56.27
2018-11-05T08:46:14.059Z,58.27
2018-11-05T08:51:20.010Z,56.67
2018-11-05T08:53:48.650Z,55.30
2018-11-05T08:56:17.650Z,61.00
2018-11-05T08:58:47.053Z,54.27
2018-11-05T09:01:16.671Z,55.27
2018-11-05T09:03:48.199Z,55.27
2018-11-05T09:06:23.980Z,55.57
2018-11-05T09:08:53.353Z,53.37
2018-11-05T09:11:22.776Z,55.07
2018-11-05T09:13:51.355Z,54.17
2018-11-05T09:16:20.696Z,53.77
2018-11-05T09:18:49.430Z,53.97
2018-11-05T09:21:18.279Z,54.40
2018-11-05T09:23:47.265Z,56.00
2018-11-05T09:26:16.028Z,52.77
2018-11-05T09:28:45.663Z,58.10
2018-11-05T09:31:14.885Z,54.83
2018-11-05T09:33:43.863Z,50.70
2018-11-05T09:36:12.723Z,55.77
2018-11-05T09:38:41.838Z,55.20
2018-11-05T09:41:10.852Z,54.77
2018-11-05T09:43:40.527Z,53.63
2018-11-05T09:46:10.075Z,55.50
2018-11-05T09:48:39.829Z,55.50
2018-11-05T09:51:08.603Z,53.83
2018-11-05T09:53:37.669Z,52.87
2018-11-05T09:56:06.573Z,51.27
2018-11-05T09:58:35.341Z,54.63
2018-11-05T10:01:04.986Z,55.00
2018-11-05T10:03:43.601Z,53.10
2018-11-05T10:06:12.498Z,51.70
2018-11-05T10:08:44.675Z,48.10
2018-11-05T10:11:13.598Z,53.37
2018-11-05T10:13:43.689Z,51.87
2018-11-05T10:16:12.547Z,53.93
2018-11-05T10:18:41.953Z,50.53
2018-11-05T10:21:13.628Z,49.83
2018-11-05T10:23:43.105Z,48.70
2018-11-05T10:26:12.034Z,48.80
2018-11-05T10:28:40.917Z,50.87
2018-11-05T10:31:09.953Z,51.50
2018-11-05T10:33:38.943Z,47.83
2018-11-05T10:36:07.798Z,46.73
2018-11-05T10:38:36.734Z,47.80
2018-11-05T10:41:05.402Z,47.80
2018-11-05T10:43:35.186Z,47.40
2018-11-05T10:46:04.193Z,47.80
2018-11-05T10:48:33.584Z,44.57
2018-11-05T10:51:02.633Z,47.03
2018-11-05T10:53:31.403Z,49.07
2018-11-05T10:56:00.305Z,46.93
2018-11-05T10:58:29.106Z,48.37
2018-11-05T11:01:14.554Z,48.40
2018-11-05T11:03:49.180Z,47.33
2018-11-05T11:06:17.967Z,49.20
2018-11-05T11:08:47.099Z,47.10
2018-11-05T11:11:16.847Z,47.53
2018-11-05T11:13:45.663Z,46.37
2018-11-05T11:16:14.575Z,47.27
2018-11-05T11:18:43.486Z,46.67
2018-11-05T11:21:12.468Z,46.77
2018-11-05T11:23:52.742Z,46.60
2018-11-05T11:26:29.805Z,45.50
2018-11-05T11:29:01.778Z,45.60
2018-11-05T11:31:36.405Z,47.37
2018-11-05T11:34:07.100Z,47.10
2018-11-05T11:36:37.852Z,46.40
2018-11-05T11:39:12.158Z,48.53
2018-11-05T11:41:42.043Z,45.67
2018-11-05T11:44:12.039Z,47.03
2018-11-05T11:46:41.208Z,46.33
2018-11-05T11:49:12.011Z,47.17
2018-11-05T11:51:43.391Z,46.67
2018-11-05T11:54:13.636Z,44.33
2018-11-05T11:56:42.792Z,44.53
2018-11-05T11:59:12.869Z,45.03
2018-11-05T12:01:47.915Z,43.50
2018-11-05T12:04:19.957Z,42.37
2018-11-05T12:06:49.917Z,41.30
2018-11-05T12:09:19.188Z,40.87
2018-11-05T12:11:49.237Z,42.20
2018-11-05T12:14:19.724Z,41.60
2018-11-05T12:16:48.760Z,39.93
2018-11-05T12:19:17.751Z,41.57
2018-11-05T12:21:47.102Z,41.50
2018-11-05T12:24:16.419Z,39.43
2018-11-05T12:26:45.441Z,41.50
2018-11-05T12:29:14.556Z,43.33
2018-11-05T12:31:43.702Z,41.17
2018-11-05T12:34:12.548Z,41.90
2018-11-05T12:36:41.441Z,38.30
2018-11-05T12:39:11.846Z,40.20
2018-11-05T12:41:40.991Z,40.17
2018-11-05T12:44:10.835Z,41.67
2018-11-05T12:46:40.890Z,40.93
2018-11-05T12:49:09.727Z,42.63
2018-11-05T12:51:38.619Z,42.37
2018-11-05T12:54:07.561Z,40.43
2018-11-05T12:56:36.449Z,41.80
2018-11-05T12:59:05.311Z,40.37
2018-11-05T13:01:34.038Z,42.67
2018-11-05T13:04:02.795Z,40.33
2018-11-05T13:06:31.573Z,42.57
2018-11-05T13:09:00.397Z,42.87
2018-11-05T13:11:29.313Z,42.30
2018-11-05T13:13:58.049Z,40.87
2018-11-05T13:16:27.548Z,42.03
2018-11-05T13:18:56.513Z,42.90
2018-11-05T13:21:25.279Z,41.70
2018-11-05T13:23:54.237Z,41.67
2018-11-05T13:26:23.036Z,43.03
2018-11-05T13:28:51.996Z,43.20
2018-11-05T13:31:20.870Z,44.43
2018-11-05T13:33:49.568Z,43.33
2018-11-05T13:36:18.461Z,42.03
2018-11-05T13:38:48.008Z,41.83
2018-11-05T13:41:16.703Z,42.03
2018-11-05T13:43:45.395Z,41.00
2018-11-05T13:46:14.620Z,39.53
2018-11-05T13:48:43.513Z,41.90
2018-11-05T13:51:11.793Z,42.33
2018-11-05T13:53:40.504Z,42.00
2018-11-05T13:56:09.337Z,44.63
2018-11-05T13:58:38.192Z,44.60
2018-11-05T14:01:07.886Z,46.80
2018-11-05T14:03:36.694Z,45.20
2018-11-05T14:06:05.477Z,44.30
2018-11-05T14:08:34.280Z,44.90
2018-11-05T14:11:03.781Z,43.07
2018-11-05T14:13:32.425Z,43.47
2018-11-05T14:16:01.971Z,44.70
2018-11-05T14:18:31.575Z,43.30
2018-11-05T14:21:00.584Z,45.70
2018-11-05T14:23:30.214Z,46.60
2018-11-05T14:25:59.128Z,45.17
2018-11-05T14:28:28.672Z,46.27
2018-11-05T14:30:57.300Z,44.03
2018-11-05T14:33:27.172Z,41.33
2018-11-05T14:35:55.996Z,41.57
2018-11-05T14:38:24.793Z,41.37
2018-11-05T14:40:53.495Z,42.17
2018-11-05T14:43:25.132Z,44.00
2018-11-05T14:45:54.061Z,41.87
2018-11-05T14:48:23.895Z,45.30
2018-11-05T14:50:52.928Z,42.10
2018-11-05T14:53:21.647Z,40.60
2018-11-05T14:55:50.613Z,41.87
2018-11-05T14:58:19.581Z,41.30
2018-11-05T15:00:49.128Z,43.03
2018-11-05T15:03:18.629Z,43.90
2018-11-05T15:08:34.131Z,42.53
2018-11-05T15:11:03.021Z,43.53
2018-11-05T15:13:31.987Z,44.93
2018-11-05T15:16:00.838Z,44.77
2018-11-05T15:18:30.760Z,41.97
2018-11-05T15:20:59.706Z,43.40
2018-11-05T15:23:28.547Z,43.47
2018-11-05T15:25:58.159Z,42.37
2018-11-05T15:28:26.943Z,43.90
2018-11-05T15:30:55.801Z,41.40
2018-11-05T15:33:24.645Z,42.93
2018-11-05T15:35:53.439Z,43.20
2018-11-05T15:38:23.829Z,43.37
2018-11-05T15:40:52.720Z,42.13
2018-11-05T15:43:21.550Z,43.07
2018-11-05T15:45:50.518Z,42.73
2018-11-05T15:48:19.359Z,42.53
2018-11-05T15:50:49.040Z,41.97
2018-11-05T15:53:18.644Z,41.33
2018-11-05T15:55:46.965Z,41.33
2018-11-05T15:58:15.755Z,42.43
2018-11-05T16:00:44.465Z,43.10
2018-11-05T16:03:13.250Z,42.73
2018-11-05T16:05:42.733Z,40.80
2018-11-05T16:08:11.607Z,41.77
2018-11-05T16:10:41.152Z,40.43
2018-11-05T16:13:10.044Z,39.97
2018-11-05T16:15:39.511Z,40.40
2018-11-05T16:18:08.444Z,41.47
2018-11-05T16:20:37.336Z,42.63
2018-11-05T16:23:06.419Z,45.90
2018-11-05T16:25:35.376Z,45.40
2018-11-05T16:28:04.177Z,45.00
2018-11-05T16:30:33.181Z,45.67
2018-11-05T16:33:01.941Z,44.03
2018-11-05T16:35:30.794Z,42.30
2018-11-05T16:37:59.554Z,44.73
2018-11-05T16:40:28.348Z,44.13
2018-11-05T16:42:57.155Z,45.23
2018-11-05T16:45:26.573Z,43.63
2018-11-05T16:47:55.434Z,44.97
2018-11-05T16:50:26.693Z,45.73
2018-11-05T16:52:55.686Z,46.27
2018-11-05T16:55:24.807Z,44.23
2018-11-05T16:57:53.751Z,43.90
2018-11-05T17:00:23.371Z,46.77
2018-11-05T17:02:52.172Z,44.93
2018-11-05T17:05:21.253Z,46.10
2018-11-05T17:07:50.071Z,47.97
2018-11-05T17:10:18.845Z,47.33
2018-11-05T17:12:47.520Z,48.67
2018-11-05T17:15:17.442Z,46.90
2018-11-05T17:17:46.290Z,45.23
2018-11-05T17:20:18.341Z,46.53
2018-11-05T17:22:48.072Z,46.57
2018-11-05T17:25:18.594Z,45.33
2018-11-05T17:27:48.140Z,44.33
2018-11-05T17:30:20.927Z,44.03
2018-11-05T17:32:49.804Z,43.83
2018-11-05T17:35:20.160Z,44.87
2018-11-05T17:37:49.470Z,44.93
2018-11-05T17:40:29.794Z,43.90
2018-11-05T17:42:59.194Z,44.07
2018-11-05T17:45:28.103Z,43.20
2018-11-05T17:47:56.992Z,44.83
2018-11-05T17:50:28.568Z,47.50
2018-11-05T17:53:00.433Z,44.63
2018-11-05T17:55:30.235Z,45.10
2018-11-05T17:57:59.827Z,46.40
2018-11-05T18:00:28.569Z,45.57
2018-11-05T18:02:57.426Z,44.23
2018-11-05T18:05:30.146Z,45.20
2018-11-05T18:08:00.647Z,46.60
2018-11-05T18:10:31.946Z,47.37
2018-11-05T18:13:01.952Z,44.57
2018-11-05T18:15:30.919Z,47.10
2018-11-05T18:17:59.681Z,46.93
2018-11-05T18:20:28.425Z,44.63
2018-11-05T18:22:57.840Z,47.27
2018-11-05T18:25:26.649Z,47.03
2018-11-05T18:27:55.535Z,46.67
2018-11-05T18:30:24.550Z,44.97
2018-11-05T18:32:53.503Z,47.10
2018-11-05T18:35:22.406Z,45.63
2018-11-05T18:37:52.260Z,46.50
2018-11-05T18:40:22.129Z,45.40
2018-11-05T18:42:51.070Z,48.73
2018-11-05T18:45:20.096Z,46.80
2018-11-05T18:47:49.020Z,47.57
2018-11-05T18:50:18.005Z,47.43
2018-11-05T18:52:46.834Z,50.00
2018-11-05T18:55:16.935Z,47.03
2018-11-05T18:57:46.309Z,50.37
2018-11-05T19:00:18.817Z,47.63
2018-11-05T19:02:47.779Z,46.17
2018-11-05T19:05:17.435Z,47.73
2018-11-05T19:07:46.915Z,48.53
2018-11-05T19:10:15.824Z,53.40
2018-11-05T19:12:44.654Z,52.03
2018-11-05T19:15:15.400Z,50.60
2018-11-05T19:17:45.330Z,48.30
2018-11-05T19:20:14.240Z,49.97
2018-11-05T19:22:43.927Z,48.10
2018-11-05T19:25:15.305Z,49.63
2018-11-05T19:27:45.212Z,48.73
2018-11-05T19:30:17.845Z,48.73
2018-11-05T19:32:47.114Z,50.40
2018-11-05T19:35:17.408Z,50.07
2018-11-05T19:37:47.001Z,48.47
2018-11-05T19:40:16.664Z,48.17
2018-11-05T19:42:47.281Z,50.33
2018-11-05T19:45:23.413Z,47.27
2018-11-05T19:47:52.332Z,48.93
2018-11-05T19:50:22.554Z,47.83
2018-11-05T19:52:52.097Z,49.50
2018-11-05T19:55:21.223Z,49.77
2018-11-05T19:57:50.860Z,51.63
2018-11-05T20:00:25.825Z,51.67
2018-11-05T20:02:55.309Z,54.50
2018-11-05T20:05:24.342Z,53.80
2018-11-05T20:07:53.858Z,52.63
2018-11-05T20:10:22.857Z,51.10
2018-11-05T20:12:51.706Z,50.80
2018-11-05T20:15:20.666Z,61.77
2018-11-05T20:17:50.871Z,51.57
2018-11-05T20:20:21.273Z,49.43
2018-11-05T20:22:50.319Z,48.83
2018-11-05T20:25:19.527Z,47.67
2018-11-05T20:27:49.065Z,47.07
2018-11-05T20:30:21.509Z,49.57
2018-11-05T20:32:51.867Z,48.67
2018-11-05T20:35:21.243Z,47.77
2018-11-05T20:37:51.006Z,50.07
2018-11-05T20:40:22.401Z,49.27
2018-11-05T20:42:52.953Z,50.37
2018-11-05T20:45:24.283Z,50.27
2018-11-05T20:47:53.272Z,49.33
2018-11-05T20:50:24.165Z,48.87
2018-11-05T20:52:53.212Z,47.57
2018-11-05T20:55:22.275Z,49.10
2018-11-05T20:57:51.900Z,48.17
2018-11-05T21:00:22.011Z,50.33
2018-11-05T21:02:50.947Z,49.93
2018-11-05T21:05:19.935Z,48.30
2018-11-05T21:07:49.060Z,52.43
2018-11-05T21:10:17.989Z,50.07
2018-11-05T21:12:46.992Z,50.83
2018-11-05T21:15:19.214Z,51.17
2018-11-05T21:17:49.770Z,51.53
2018-11-05T21:20:19.434Z,53.17
2018-11-05T21:22:49.322Z,50.93
2018-11-05T21:25:18.212Z,52.47
2018-11-05T21:27:47.138Z,52.13
2018-11-05T21:30:18.547Z,52.27
2018-11-05T21:32:47.608Z,50.93
2018-11-05T21:35:18.398Z,53.03
2018-11-05T21:37:48.360Z,50.57
2018-11-05T21:40:18.103Z,52.63
2018-11-05T21:42:47.249Z,51.77
2018-11-05T21:45:17.543Z,50.90
2018-11-05T21:47:46.991Z,50.57
2018-11-05T21:50:17.243Z,53.53
2018-11-05T21:52:48.209Z,48.87
2018-11-05T21:55:17.235Z,50.63
2018-11-05T21:57:47.557Z,49.73
2018-11-05T22:00:19.781Z,52.13
2018-11-05T22:02:53.949Z,51.73
2018-11-05T22:05:22.741Z,52.20
2018-11-05T22:10:41.532Z,53.17
2018-11-05T22:13:10.676Z,56.13
2018-11-05T22:15:48.050Z,52.83
2018-11-05T22:18:18.295Z,50.77
2018-11-05T22:20:47.497Z,51.33
2018-11-05T22:23:16.439Z,53.17
2018-11-05T22:25:46.199Z,51.17
2018-11-05T22:28:15.191Z,53.70
2018-11-05T22:30:44.199Z,50.53
2018-11-05T22:33:13.502Z,52.40
2018-11-05T22:35:42.922Z,51.83
2018-11-05T22:38:13.497Z,54.03
2018-11-05T22:40:45.008Z,55.17
2018-11-05T22:43:28.540Z,49.87
2018-11-05T22:45:57.502Z,50.10
2018-11-05T22:48:27.536Z,49.67
2018-11-05T22:50:56.612Z,50.73
2018-11-05T22:53:39.809Z,49.60
2018-11-05T22:56:08.837Z,46.00
2018-11-05T22:58:38.191Z,48.07
2018-11-05T23:01:09.765Z,46.20
2018-11-05T23:03:39.334Z,45.93
2018-11-05T23:06:08.937Z,45.67
2018-11-05T23:08:39.035Z,46.90
2018-11-05T23:11:09.282Z,46.63
2018-11-05T23:13:38.444Z,47.27
2018-11-05T23:16:07.421Z,47.30
2018-11-05T23:18:37.431Z,45.13
2018-11-05T23:21:06.712Z,48.20
2018-11-05T23:23:36.012Z,45.23
2018-11-05T23:26:05.059Z,47.00
2018-11-05T23:28:33.950Z,49.97
2018-11-05T23:31:10.013Z,48.17
2018-11-05T23:33:38.853Z,47.50
2018-11-05T23:36:08.585Z,47.30
2018-11-05T23:38:37.364Z,47.20
2018-11-05T23:41:06.466Z,44.30
2018-11-05T23:43:35.274Z,45.60
2018-11-05T23:46:04.170Z,50.67
2018-11-05T23:51:12.789Z,47.60
2018-11-05T23:53:41.677Z,51.43
2018-11-05T23:56:10.423Z,46.07
2018-11-05T23:58:39.329Z,50.27
